sensor_id;sensor_type;location;lat;lon;timestamp;pressure;altitude;pressure_sealevel;temperature;humidity
19553;BME280;9420;50.876;7.012;2023-04-29T00:01:21;100769.72;;;46.84;22.94
19553;BME280;9420;50.876;7.012;2023-04-29T00:03:50;100762.81;;;46.46;23.98
19553;BME280;9420;50.876;7.012;2023-04-29T00:06:17;100764.06;;;47.14;22.77
19553;BME280;9420;50.876;7.012;2023-04-29T00:08:44;100772.47;;;47.09;23.42
19553;BME280;9420;50.876;7.012;2023-04-29T00:11:11;100770.81;;;45.10;24.31
19553;BME280;9420;50.876;7.012;2023-04-29T00:13:38;100774.09;;;43.49;25.54
19553;BME280;9420;50.876;7.012;2023-04-29T00:16:07;100774.94;;;47.79;22.26
19553;BME280;9420;50.876;7.012;2023-04-29T00:18:34;100777.06;;;44.80;24.28
19553;BME280;9420;50.876;7.012;2023-04-29T00:21:04;100784.03;;;44.51;23.74
19553;BME280;9420;50.876;7.012;2023-04-29T00:23:32;100777.53;;;46.11;24.07
19553;BME280;9420;50.876;7.012;2023-04-29T00:25:59;100774.13;;;48.75;21.94
19553;BME280;9420;50.876;7.012;2023-04-29T00:28:26;100780.03;;;45.93;22.14
19553;BME280;9420;50.876;7.012;2023-04-29T00:30:53;100780.31;;;44.72;23.22
19553;BME280;9420;50.876;7.012;2023-04-29T00:33:20;100789.38;;;44.31;23.84
19553;BME280;9420;50.876;7.012;2023-04-29T00:35:47;100808.91;;;43.39;23.67
19553;BME280;9420;50.876;7.012;2023-04-29T00:38:16;100804.16;;;45.67;22.24
19553;BME280;9420;50.876;7.012;2023-04-29T00:40:44;100800.56;;;45.10;22.44
19553;BME280;9420;50.876;7.012;2023-04-29T00:43:11;100815.47;;;42.01;24.58
19553;BME280;9420;50.876;7.012;2023-04-29T00:45:38;100803.09;;;45.88;22.71
19553;BME280;9420;50.876;7.012;2023-04-29T00:48:05;100810.97;;;44.51;22.83
19553;BME280;9420;50.876;7.012;2023-04-29T00:50:33;100809.72;;;47.33;21.41
19553;BME280;9420;50.876;7.012;2023-04-29T00:53:01;100812.09;;;45.38;22.45
19553;BME280;9420;50.876;7.012;2023-04-29T00:55:31;100813.75;;;44.82;22.63
19553;BME280;9420;50.876;7.012;2023-04-29T00:57:59;100812.66;;;47.67;21.62
19553;BME280;9420;50.876;7.012;2023-04-29T01:00:28;100814.06;;;44.91;22.40
19553;BME280;9420;50.876;7.012;2023-04-29T01:02:57;100813.91;;;47.95;21.34
19553;BME280;9420;50.876;7.012;2023-04-29T01:05:24;100824.16;;;45.54;21.97
19553;BME280;9420;50.876;7.012;2023-04-29T01:08:13;100816.22;;;42.08;24.69
19553;BME280;9420;50.876;7.012;2023-04-29T01:10:53;100813.53;;;44.31;23.26
19553;BME280;9420;50.876;7.012;2023-04-29T01:13:29;100818.75;;;47.10;21.26
19553;BME280;9420;50.876;7.012;2023-04-29T01:16:01;100817.53;;;43.86;23.89
19553;BME280;9420;50.876;7.012;2023-04-29T01:18:33;100823.22;;;46.15;22.22
19553;BME280;9420;50.876;7.012;2023-04-29T01:21:03;100831.22;;;47.92;20.29
19553;BME280;9420;50.876;7.012;2023-04-29T01:23:31;100827.09;;;46.19;21.96
19553;BME280;9420;50.876;7.012;2023-04-29T01:25:59;100819.50;;;48.67;20.30
19553;BME280;9420;50.876;7.012;2023-04-29T01:28:42;100830.94;;;47.34;21.26
19553;BME280;9420;50.876;7.012;2023-04-29T01:31:18;100832.69;;;46.95;20.93
19553;BME280;9420;50.876;7.012;2023-04-29T01:33:58;100829.09;;;46.89;21.02
19553;BME280;9420;50.876;7.012;2023-04-29T01:36:41;100835.50;;;46.60;22.11
19553;BME280;9420;50.876;7.012;2023-04-29T01:39:20;100827.16;;;46.29;21.74
19553;BME280;9420;50.876;7.012;2023-04-29T01:42:01;100827.56;;;49.92;19.84
19553;BME280;9420;50.876;7.012;2023-04-29T01:44:32;100830.53;;;45.03;22.15
19553;BME280;9420;50.876;7.012;2023-04-29T01:47:00;100839.97;;;45.48;22.01
19553;BME280;9420;50.876;7.012;2023-04-29T01:49:28;100838.19;;;45.27;21.69
19553;BME280;9420;50.876;7.012;2023-04-29T01:51:56;100842.66;;;45.28;21.91
19553;BME280;9420;50.876;7.012;2023-04-29T01:54:24;100846.91;;;45.46;22.30
19553;BME280;9420;50.876;7.012;2023-04-29T01:56:52;100845.53;;;46.40;21.44
19553;BME280;9420;50.876;7.012;2023-04-29T01:59:19;100852.34;;;45.73;22.25
19553;BME280;9420;50.876;7.012;2023-04-29T02:01:46;100847.72;;;46.99;21.89
19553;BME280;9420;50.876;7.012;2023-04-29T02:04:14;100853.88;;;47.01;21.51
19553;BME280;9420;50.876;7.012;2023-04-29T02:06:41;100860.88;;;44.41;21.66
19553;BME280;9420;50.876;7.012;2023-04-29T02:09:09;100861.53;;;44.84;22.76
19553;BME280;9420;50.876;7.012;2023-04-29T02:11:38;100847.22;;;48.92;20.27
19553;BME280;9420;50.876;7.012;2023-04-29T02:14:05;100859.41;;;44.97;22.21
19553;BME280;9420;50.876;7.012;2023-04-29T02:16:32;100868.44;;;44.45;23.50
19553;BME280;9420;50.876;7.012;2023-04-29T02:18:59;100870.72;;;44.53;23.09
19553;BME280;9420;50.876;7.012;2023-04-29T02:21:26;100861.88;;;45.92;22.19
19553;BME280;9420;50.876;7.012;2023-04-29T02:23:53;100867.81;;;46.96;21.53
19553;BME280;9420;50.876;7.012;2023-04-29T02:26:21;100866.00;;;45.79;21.97
19553;BME280;9420;50.876;7.012;2023-04-29T02:28:52;100880.41;;;43.76;22.63
19553;BME280;9420;50.876;7.012;2023-04-29T02:31:23;100882.81;;;45.11;22.34
19553;BME280;9420;50.876;7.012;2023-04-29T02:33:50;100871.16;;;46.58;21.60
19553;BME280;9420;50.876;7.012;2023-04-29T02:36:19;100878.00;;;45.33;22.78
19553;BME280;9420;50.876;7.012;2023-04-29T02:38:46;100883.06;;;44.67;22.72
19553;BME280;9420;50.876;7.012;2023-04-29T02:41:18;100880.56;;;47.47;20.77
19553;BME280;9420;50.876;7.012;2023-04-29T02:43:50;100893.22;;;44.03;22.70
19553;BME280;9420;50.876;7.012;2023-04-29T02:46:21;100881.44;;;47.28;21.76
19553;BME280;9420;50.876;7.012;2023-04-29T02:48:48;100884.94;;;44.93;21.81
19553;BME280;9420;50.876;7.012;2023-04-29T02:51:16;100882.63;;;44.80;22.59
19553;BME280;9420;50.876;7.012;2023-04-29T02:53:44;100886.78;;;46.33;22.15
19553;BME280;9420;50.876;7.012;2023-04-29T02:56:12;100893.81;;;45.84;21.84
19553;BME280;9420;50.876;7.012;2023-04-29T02:58:40;100889.19;;;45.06;22.60
19553;BME280;9420;50.876;7.012;2023-04-29T03:01:11;100887.72;;;44.35;22.81
19553;BME280;9420;50.876;7.012;2023-04-29T03:03:38;100889.78;;;47.33;21.20
19553;BME280;9420;50.876;7.012;2023-04-29T03:06:06;100891.13;;;46.09;21.92
19553;BME280;9420;50.876;7.012;2023-04-29T03:08:33;100896.09;;;44.99;22.63
19553;BME280;9420;50.876;7.012;2023-04-29T03:11:00;100894.06;;;46.65;21.20
19553;BME280;9420;50.876;7.012;2023-04-29T03:13:27;100895.31;;;44.71;22.40
19553;BME280;9420;50.876;7.012;2023-04-29T03:15:54;100900.97;;;44.81;22.49
19553;BME280;9420;50.876;7.012;2023-04-29T03:18:25;100894.88;;;45.21;22.59
19553;BME280;9420;50.876;7.012;2023-04-29T03:20:52;100899.59;;;47.15;21.78
19553;BME280;9420;50.876;7.012;2023-04-29T03:23:19;100898.44;;;47.41;21.15
19553;BME280;9420;50.876;7.012;2023-04-29T03:25:47;100899.72;;;44.99;22.85
19553;BME280;9420;50.876;7.012;2023-04-29T03:28:14;100904.50;;;45.09;23.44
19553;BME280;9420;50.876;7.012;2023-04-29T03:30:41;100908.88;;;43.93;22.49
19553;BME280;9420;50.876;7.012;2023-04-29T03:33:10;100909.31;;;44.81;22.61
19553;BME280;9420;50.876;7.012;2023-04-29T03:35:38;100907.00;;;44.73;23.65
19553;BME280;9420;50.876;7.012;2023-04-29T03:38:05;100898.47;;;45.17;23.56
19553;BME280;9420;50.876;7.012;2023-04-29T03:40:32;100905.44;;;45.66;22.41
19553;BME280;9420;50.876;7.012;2023-04-29T03:42:59;100903.88;;;43.90;23.19
19553;BME280;9420;50.876;7.012;2023-04-29T03:45:26;100916.31;;;43.27;24.32
19553;BME280;9420;50.876;7.012;2023-04-29T03:47:53;100916.00;;;42.18;25.10
19553;BME280;9420;50.876;7.012;2023-04-29T03:50:21;100911.75;;;46.08;22.43
19553;BME280;9420;50.876;7.012;2023-04-29T03:52:50;100919.97;;;42.50;25.41
19553;BME280;9420;50.876;7.012;2023-04-29T03:55:17;100913.06;;;45.39;24.01
19553;BME280;9420;50.876;7.012;2023-04-29T03:57:45;100913.19;;;45.54;22.88
19553;BME280;9420;50.876;7.012;2023-04-29T04:00:13;100914.03;;;43.63;24.88
19553;BME280;9420;50.876;7.012;2023-04-29T04:02:40;100921.44;;;44.75;24.05
19553;BME280;9420;50.876;7.012;2023-04-29T04:05:07;100928.53;;;43.65;24.24
19553;BME280;9420;50.876;7.012;2023-04-29T04:07:35;100926.41;;;43.00;25.10
19553;BME280;9420;50.876;7.012;2023-04-29T04:10:04;100951.63;;;42.03;24.42
19553;BME280;9420;50.876;7.012;2023-04-29T04:12:31;100930.34;;;44.72;23.82
19553;BME280;9420;50.876;7.012;2023-04-29T04:14:58;100944.13;;;41.63;24.43
19553;BME280;9420;50.876;7.012;2023-04-29T04:17:26;100929.69;;;46.63;22.87
19553;BME280;9420;50.876;7.012;2023-04-29T04:19:53;100939.22;;;47.07;23.24
19553;BME280;9420;50.876;7.012;2023-04-29T04:22:21;100934.03;;;50.29;20.68
19553;BME280;9420;50.876;7.012;2023-04-29T04:24:49;100945.78;;;45.22;23.31
19553;BME280;9420;50.876;7.012;2023-04-29T04:27:18;100956.38;;;43.75;23.50
19553;BME280;9420;50.876;7.012;2023-04-29T04:29:45;100957.09;;;43.15;23.65
19553;BME280;9420;50.876;7.012;2023-04-29T04:32:14;100962.47;;;43.72;24.57
19553;BME280;9420;50.876;7.012;2023-04-29T04:34:44;100952.00;;;45.91;21.94
19553;BME280;9420;50.876;7.012;2023-04-29T04:37:17;100979.56;;;44.29;23.09
19553;BME280;9420;50.876;7.012;2023-04-29T04:39:48;100974.25;;;43.12;23.82
19553;BME280;9420;50.876;7.012;2023-04-29T04:42:22;100972.34;;;45.08;23.23
19553;BME280;9420;50.876;7.012;2023-04-29T04:44:53;100980.66;;;42.96;23.73
19553;BME280;9420;50.876;7.012;2023-04-29T04:47:26;100976.53;;;44.30;23.87
19553;BME280;9420;50.876;7.012;2023-04-29T04:52:38;100984.50;;;44.75;23.42
19553;BME280;9420;50.876;7.012;2023-04-29T04:55:07;100994.09;;;43.37;22.85
19553;BME280;9420;50.876;7.012;2023-04-29T04:57:38;100987.72;;;47.21;21.64
19553;BME280;9420;50.876;7.012;2023-04-29T05:00:07;100985.44;;;47.53;21.45
19553;BME280;9420;50.876;7.012;2023-04-29T05:02:34;100989.41;;;47.02;21.06
19553;BME280;9420;50.876;7.012;2023-04-29T05:05:01;101001.06;;;48.87;20.89
19553;BME280;9420;50.876;7.012;2023-04-29T05:07:28;100999.44;;;47.48;21.25
19553;BME280;9420;50.876;7.012;2023-04-29T05:09:56;101007.28;;;44.45;23.08
19553;BME280;9420;50.876;7.012;2023-04-29T05:12:23;101016.69;;;44.92;22.86
19553;BME280;9420;50.876;7.012;2023-04-29T05:14:57;101024.09;;;43.95;23.27
19553;BME280;9420;50.876;7.012;2023-04-29T05:17:24;101020.47;;;42.79;24.73
19553;BME280;9420;50.876;7.012;2023-04-29T05:19:51;101026.19;;;43.67;23.68
19553;BME280;9420;50.876;7.012;2023-04-29T05:22:23;101029.69;;;48.15;21.71
19553;BME280;9420;50.876;7.012;2023-04-29T05:24:54;101030.59;;;45.56;21.71
19553;BME280;9420;50.876;7.012;2023-04-29T05:27:27;101031.16;;;46.77;22.05
19553;BME280;9420;50.876;7.012;2023-04-29T05:29:56;101030.63;;;46.95;21.77
19553;BME280;9420;50.876;7.012;2023-04-29T05:32:23;101037.66;;;45.37;22.75
19553;BME280;9420;50.876;7.012;2023-04-29T05:34:50;101046.47;;;43.89;23.18
19553;BME280;9420;50.876;7.012;2023-04-29T05:37:17;101044.25;;;44.72;22.50
19553;BME280;9420;50.876;7.012;2023-04-29T05:39:44;101044.44;;;42.05;24.57
19553;BME280;9420;50.876;7.012;2023-04-29T05:42:11;101061.88;;;41.82;23.62
19553;BME280;9420;50.876;7.012;2023-04-29T05:44:38;101062.28;;;41.33;24.26
19553;BME280;9420;50.876;7.012;2023-04-29T05:47:08;101042.81;;;45.23;23.04
19553;BME280;9420;50.876;7.012;2023-04-29T05:49:39;101068.75;;;44.32;22.62
19553;BME280;9420;50.876;7.012;2023-04-29T05:52:16;101066.22;;;43.09;24.22
19553;BME280;9420;50.876;7.012;2023-04-29T05:54:43;101065.16;;;44.53;22.97
19553;BME280;9420;50.876;7.012;2023-04-29T05:57:10;101057.81;;;46.42;21.33
19553;BME280;9420;50.876;7.012;2023-04-29T05:59:38;101067.13;;;45.70;21.38
19553;BME280;9420;50.876;7.012;2023-04-29T06:02:09;101070.47;;;45.67;22.44
19553;BME280;9420;50.876;7.012;2023-04-29T06:04:37;101072.16;;;46.86;21.61
19553;BME280;9420;50.876;7.012;2023-04-29T06:07:06;101082.84;;;43.71;24.08
19553;BME280;9420;50.876;7.012;2023-04-29T06:09:38;101083.31;;;45.41;22.13
19553;BME280;9420;50.876;7.012;2023-04-29T06:12:06;101093.22;;;43.47;23.39
19553;BME280;9420;50.876;7.012;2023-04-29T06:14:33;101085.59;;;45.49;22.27
19553;BME280;9420;50.876;7.012;2023-04-29T06:17:00;101100.75;;;44.18;23.40
19553;BME280;9420;50.876;7.012;2023-04-29T06:19:30;101110.88;;;41.52;24.65
19553;BME280;9420;50.876;7.012;2023-04-29T06:21:59;101106.50;;;41.33;23.64
19553;BME280;9420;50.876;7.012;2023-04-29T06:24:26;101112.97;;;42.26;24.07
19553;BME280;9420;50.876;7.012;2023-04-29T06:26:53;101115.00;;;44.86;22.76
19553;BME280;9420;50.876;7.012;2023-04-29T06:29:20;101120.47;;;43.05;24.03
19553;BME280;9420;50.876;7.012;2023-04-29T06:31:47;101119.91;;;44.79;22.74
19553;BME280;9420;50.876;7.012;2023-04-29T06:34:14;101120.97;;;45.53;22.11
19553;BME280;9420;50.876;7.012;2023-04-29T06:36:42;101124.91;;;43.34;23.91
19553;BME280;9420;50.876;7.012;2023-04-29T06:39:09;101121.88;;;44.19;23.21
19553;BME280;9420;50.876;7.012;2023-04-29T06:41:36;101131.22;;;44.13;23.06
19553;BME280;9420;50.876;7.012;2023-04-29T06:44:05;101125.25;;;46.50;21.90
19553;BME280;9420;50.876;7.012;2023-04-29T06:46:32;101143.66;;;42.48;23.81
19553;BME280;9420;50.876;7.012;2023-04-29T06:48:59;101136.16;;;46.04;21.44
19553;BME280;9420;50.876;7.012;2023-04-29T06:51:27;101133.34;;;46.51;21.21
19553;BME280;9420;50.876;7.012;2023-04-29T06:53:56;101138.09;;;46.09;22.14
19553;BME280;9420;50.876;7.012;2023-04-29T06:56:23;101138.66;;;47.90;20.65
19553;BME280;9420;50.876;7.012;2023-04-29T06:58:50;101150.59;;;45.70;21.88
19553;BME280;9420;50.876;7.012;2023-04-29T07:01:17;101160.22;;;44.60;21.87
19553;BME280;9420;50.876;7.012;2023-04-29T07:03:44;101150.16;;;45.83;21.93
19553;BME280;9420;50.876;7.012;2023-04-29T07:06:11;101146.75;;;47.86;20.69
19553;BME280;9420;50.876;7.012;2023-04-29T07:08:40;101157.84;;;49.45;19.76
19553;BME280;9420;50.876;7.012;2023-04-29T07:11:08;101157.59;;;46.56;20.98
19553;BME280;9420;50.876;7.012;2023-04-29T07:13:35;101161.53;;;47.72;20.34
19553;BME280;9420;50.876;7.012;2023-04-29T07:16:03;101167.69;;;45.51;22.25
19553;BME280;9420;50.876;7.012;2023-04-29T07:18:30;101179.38;;;44.40;22.24
19553;BME280;9420;50.876;7.012;2023-04-29T07:21:00;101180.59;;;44.28;22.07
19553;BME280;9420;50.876;7.012;2023-04-29T07:23:27;101177.38;;;45.76;21.28
19553;BME280;9420;50.876;7.012;2023-04-29T07:25:55;101173.72;;;46.44;20.96
19553;BME280;9420;50.876;7.012;2023-04-29T07:28:24;101184.75;;;44.68;21.33
19553;BME280;9420;50.876;7.012;2023-04-29T07:30:51;101194.09;;;43.01;23.09
19553;BME280;9420;50.876;7.012;2023-04-29T07:33:18;101191.97;;;44.86;21.64
19553;BME280;9420;50.876;7.012;2023-04-29T07:35:45;101194.19;;;45.11;21.54
19553;BME280;9420;50.876;7.012;2023-04-29T07:38:12;101208.16;;;45.16;21.75
19553;BME280;9420;50.876;7.012;2023-04-29T07:40:41;101200.31;;;45.08;21.39
19553;BME280;9420;50.876;7.012;2023-04-29T07:43:08;101190.78;;;48.40;20.38
19553;BME280;9420;50.876;7.012;2023-04-29T07:45:36;101192.50;;;47.60;19.69
19553;BME280;9420;50.876;7.012;2023-04-29T07:48:05;101195.34;;;48.11;20.50
19553;BME280;9420;50.876;7.012;2023-04-29T07:50:33;101198.59;;;48.48;19.88
19553;BME280;9420;50.876;7.012;2023-04-29T07:53:01;101209.13;;;45.53;21.38
19553;BME280;9420;50.876;7.012;2023-04-29T07:55:28;101193.78;;;48.79;20.26
19553;BME280;9420;50.876;7.012;2023-04-29T07:57:55;101212.13;;;44.38;20.71
19553;BME280;9420;50.876;7.012;2023-04-29T08:00:23;101209.63;;;44.20;22.07
19553;BME280;9420;50.876;7.012;2023-04-29T08:02:52;101209.56;;;46.77;20.95
19553;BME280;9420;50.876;7.012;2023-04-29T08:05:20;101203.09;;;47.53;19.75
19553;BME280;9420;50.876;7.012;2023-04-29T08:07:48;101212.00;;;47.30;20.42
19553;BME280;9420;50.876;7.012;2023-04-29T08:10:16;101205.78;;;47.08;20.93
19553;BME280;9420;50.876;7.012;2023-04-29T08:12:45;101207.31;;;49.10;19.81
19553;BME280;9420;50.876;7.012;2023-04-29T08:15:12;101208.09;;;48.57;19.59
19553;BME280;9420;50.876;7.012;2023-04-29T08:17:39;101219.22;;;50.08;19.10
19553;BME280;9420;50.876;7.012;2023-04-29T08:20:09;101221.94;;;49.90;19.03
19553;BME280;9420;50.876;7.012;2023-04-29T08:22:36;101224.13;;;50.22;18.63
19553;BME280;9420;50.876;7.012;2023-04-29T08:25:04;101225.25;;;50.26;18.81
19553;BME280;9420;50.876;7.012;2023-04-29T08:27:31;101234.94;;;47.62;19.95
19553;BME280;9420;50.876;7.012;2023-04-29T08:29:58;101239.84;;;45.58;21.20
19553;BME280;9420;50.876;7.012;2023-04-29T08:32:25;101233.22;;;50.37;18.80
19553;BME280;9420;50.876;7.012;2023-04-29T08:34:52;101237.78;;;46.49;19.89
19553;BME280;9420;50.876;7.012;2023-04-29T08:37:21;101234.22;;;49.94;18.79
19553;BME280;9420;50.876;7.012;2023-04-29T08:39:48;101242.78;;;49.69;18.59
19553;BME280;9420;50.876;7.012;2023-04-29T08:42:18;101250.13;;;49.60;18.33
19553;BME280;9420;50.876;7.012;2023-04-29T08:44:51;101248.66;;;46.97;18.62
19553;BME280;9420;50.876;7.012;2023-04-29T08:47:19;101252.09;;;46.62;20.17
19553;BME280;9420;50.876;7.012;2023-04-29T08:49:47;101253.63;;;48.73;19.17
19553;BME280;9420;50.876;7.012;2023-04-29T08:52:14;101256.19;;;48.29;19.18
19553;BME280;9420;50.876;7.012;2023-04-29T08:54:44;101263.78;;;45.91;19.53
19553;BME280;9420;50.876;7.012;2023-04-29T08:57:11;101257.25;;;47.62;20.48
19553;BME280;9420;50.876;7.012;2023-04-29T08:59:39;101270.66;;;49.89;18.26
19553;BME280;9420;50.876;7.012;2023-04-29T09:02:12;101267.44;;;49.67;18.50
19553;BME280;9420;50.876;7.012;2023-04-29T09:04:52;101265.53;;;47.27;20.18
19553;BME280;9420;50.876;7.012;2023-04-29T09:07:21;101271.41;;;46.74;20.35
19553;BME280;9420;50.876;7.012;2023-04-29T09:09:52;101276.22;;;42.56;21.80
19553;BME280;9420;50.876;7.012;2023-04-29T09:12:19;101272.16;;;45.64;20.44
19553;BME280;9420;50.876;7.012;2023-04-29T09:14:46;101276.53;;;43.74;20.99
19553;BME280;9420;50.876;7.012;2023-04-29T09:17:13;101267.53;;;45.48;20.69
19553;BME280;9420;50.876;7.012;2023-04-29T09:19:43;101268.44;;;45.32;21.08
19553;BME280;9420;50.876;7.012;2023-04-29T09:22:10;101285.88;;;45.49;20.64
19553;BME280;9420;50.876;7.012;2023-04-29T09:24:37;101279.94;;;44.59;20.35
19553;BME280;9420;50.876;7.012;2023-04-29T09:27:06;101278.47;;;47.48;19.38
19553;BME280;9420;50.876;7.012;2023-04-29T09:29:34;101285.13;;;45.32;20.37
19553;BME280;9420;50.876;7.012;2023-04-29T09:32:19;101282.03;;;46.77;19.36
19553;BME280;9420;50.876;7.012;2023-04-29T09:34:47;101282.47;;;48.28;18.44
19553;BME280;9420;50.876;7.012;2023-04-29T09:37:24;101282.00;;;50.36;17.96
19553;BME280;9420;50.876;7.012;2023-04-29T09:39:53;101295.44;;;46.11;19.11
19553;BME280;9420;50.876;7.012;2023-04-29T09:42:22;101290.28;;;50.51;17.43
19553;BME280;9420;50.876;7.012;2023-04-29T09:44:49;101294.09;;;45.87;20.18
19553;BME280;9420;50.876;7.012;2023-04-29T09:47:29;101302.75;;;43.26;20.89
19553;BME280;9420;50.876;7.012;2023-04-29T09:50:10;101287.19;;;49.42;19.02
19553;BME280;9420;50.876;7.012;2023-04-29T09:52:41;101297.25;;;48.43;18.26
19553;BME280;9420;50.876;7.012;2023-04-29T09:55:10;101299.69;;;48.95;19.20
19553;BME280;9420;50.876;7.012;2023-04-29T09:57:41;101306.75;;;48.37;18.48
19553;BME280;9420;50.876;7.012;2023-04-29T10:00:11;101310.84;;;45.44;20.51
19553;BME280;9420;50.876;7.012;2023-04-29T10:02:41;101313.94;;;44.82;20.64
19553;BME280;9420;50.876;7.012;2023-04-29T10:05:10;101306.19;;;50.27;18.19
19553;BME280;9420;50.876;7.012;2023-04-29T10:07:40;101308.09;;;47.74;18.68
19553;BME280;9420;50.876;7.012;2023-04-29T10:10:09;101314.88;;;48.34;18.99
19553;BME280;9420;50.876;7.012;2023-04-29T10:12:43;101313.19;;;48.43;18.54
19553;BME280;9420;50.876;7.012;2023-04-29T10:15:28;101303.94;;;49.52;18.15
19553;BME280;9420;50.876;7.012;2023-04-29T10:18:02;101321.56;;;48.38;18.56
19553;BME280;9420;50.876;7.012;2023-04-29T10:20:33;101317.09;;;48.52;18.87
19553;BME280;9420;50.876;7.012;2023-04-29T10:23:03;101315.41;;;47.91;18.56
19553;BME280;9420;50.876;7.012;2023-04-29T10:25:35;101320.75;;;50.29;17.89
19553;BME280;9420;50.876;7.012;2023-04-29T10:28:08;101322.91;;;49.60;18.33
19553;BME280;9420;50.876;7.012;2023-04-29T10:30:44;101324.19;;;50.55;17.51
19553;BME280;9420;50.876;7.012;2023-04-29T10:33:17;101327.50;;;49.89;18.06
19553;BME280;9420;50.876;7.012;2023-04-29T10:35:47;101326.31;;;49.47;18.11
19553;BME280;9420;50.876;7.012;2023-04-29T10:38:24;101332.09;;;50.09;17.97
19553;BME280;9420;50.876;7.012;2023-04-29T10:40:57;101330.59;;;49.88;18.04
19553;BME280;9420;50.876;7.012;2023-04-29T10:43:30;101337.22;;;48.34;18.62
19553;BME280;9420;50.876;7.012;2023-04-29T10:46:22;101348.66;;;47.97;19.34
19553;BME280;9420;50.876;7.012;2023-04-29T10:48:56;101351.56;;;46.25;19.69
19553;BME280;9420;50.876;7.012;2023-04-29T10:51:31;101340.72;;;49.25;18.50
19553;BME280;9420;50.876;7.012;2023-04-29T10:54:00;101350.59;;;48.02;19.23
19553;BME280;9420;50.876;7.012;2023-04-29T10:56:42;101339.38;;;49.02;18.35
19553;BME280;9420;50.876;7.012;2023-04-29T10:59:13;101351.81;;;46.92;19.19
19553;BME280;9420;50.876;7.012;2023-04-29T11:01:47;101346.66;;;49.03;18.77
19553;BME280;9420;50.876;7.012;2023-04-29T11:04:16;101364.06;;;49.59;18.51
19553;BME280;9420;50.876;7.012;2023-04-29T11:06:46;101375.53;;;45.99;20.10
19553;BME280;9420;50.876;7.012;2023-04-29T11:09:19;101362.13;;;48.55;19.43
19553;BME280;9420;50.876;7.012;2023-04-29T11:11:59;101368.34;;;49.36;18.53
19553;BME280;9420;50.876;7.012;2023-04-29T11:14:34;101361.09;;;49.35;18.32
19553;BME280;9420;50.876;7.012;2023-04-29T11:17:06;101368.94;;;45.19;20.10
19553;BME280;9420;50.876;7.012;2023-04-29T11:19:35;101367.94;;;48.79;19.28
19553;BME280;9420;50.876;7.012;2023-04-29T11:22:10;101366.47;;;49.12;18.79
19553;BME280;9420;50.876;7.012;2023-04-29T11:24:52;101357.22;;;49.21;18.80
19553;BME280;9420;50.876;7.012;2023-04-29T11:27:23;101373.09;;;45.38;20.36
19553;BME280;9420;50.876;7.012;2023-04-29T11:29:56;101367.34;;;48.02;19.13
19553;BME280;9420;50.876;7.012;2023-04-29T11:32:25;101369.94;;;45.73;20.90
19553;BME280;9420;50.876;7.012;2023-04-29T11:34:52;101377.50;;;44.62;20.85
19553;BME280;9420;50.876;7.012;2023-04-29T11:37:24;101366.88;;;43.98;21.97
19553;BME280;9420;50.876;7.012;2023-04-29T11:39:58;101371.09;;;47.45;19.55
19553;BME280;9420;50.876;7.012;2023-04-29T11:42:26;101360.78;;;49.52;18.71
19553;BME280;9420;50.876;7.012;2023-04-29T11:44:59;101365.94;;;50.23;18.07
19553;BME280;9420;50.876;7.012;2023-04-29T11:47:27;101366.22;;;50.21;18.42
19553;BME280;9420;50.876;7.012;2023-04-29T11:50:02;101368.69;;;49.84;18.54
19553;BME280;9420;50.876;7.012;2023-04-29T11:52:30;101367.41;;;50.10;18.38
19553;BME280;9420;50.876;7.012;2023-04-29T11:54:58;101371.00;;;50.16;18.61
19553;BME280;9420;50.876;7.012;2023-04-29T11:57:25;101376.16;;;49.45;18.87
19553;BME280;9420;50.876;7.012;2023-04-29T11:59:52;101378.78;;;49.90;18.33
19553;BME280;9420;50.876;7.012;2023-04-29T12:02:22;101382.44;;;50.58;18.05
19553;BME280;9420;50.876;7.012;2023-04-29T12:04:49;101381.69;;;49.65;18.40
19553;BME280;9420;50.876;7.012;2023-04-29T12:07:17;101382.16;;;50.26;18.09
19553;BME280;9420;50.876;7.012;2023-04-29T12:09:45;101386.75;;;45.83;20.04
19553;BME280;9420;50.876;7.012;2023-04-29T12:12:13;101384.84;;;47.10;20.46
19553;BME280;9420;50.876;7.012;2023-04-29T12:14:41;101384.88;;;49.97;18.64
19553;BME280;9420;50.876;7.012;2023-04-29T12:17:09;101378.09;;;50.03;18.38
19553;BME280;9420;50.876;7.012;2023-04-29T12:19:38;101380.19;;;47.82;18.97
19553;BME280;9420;50.876;7.012;2023-04-29T12:22:06;101385.28;;;48.36;19.93
19553;BME280;9420;50.876;7.012;2023-04-29T12:24:35;101392.44;;;46.46;19.47
19553;BME280;9420;50.876;7.012;2023-04-29T12:27:02;101381.94;;;48.84;19.73
19553;BME280;9420;50.876;7.012;2023-04-29T12:29:31;101379.41;;;50.54;18.33
19553;BME280;9420;50.876;7.012;2023-04-29T12:31:58;101385.28;;;48.86;18.87
19553;BME280;9420;50.876;7.012;2023-04-29T12:34:27;101385.06;;;50.10;18.64
19553;BME280;9420;50.876;7.012;2023-04-29T12:36:58;101380.88;;;50.08;18.42
19553;BME280;9420;50.876;7.012;2023-04-29T12:39:26;101391.94;;;50.62;18.30
19553;BME280;9420;50.876;7.012;2023-04-29T12:41:57;101395.38;;;50.88;18.43
19553;BME280;9420;50.876;7.012;2023-04-29T12:44:24;101388.75;;;49.52;18.79
19553;BME280;9420;50.876;7.012;2023-04-29T12:46:51;101392.25;;;49.14;19.54
19553;BME280;9420;50.876;7.012;2023-04-29T12:49:18;101389.66;;;46.78;18.98
19553;BME280;9420;50.876;7.012;2023-04-29T12:51:46;101397.97;;;46.73;19.75
19553;BME280;9420;50.876;7.012;2023-04-29T12:54:14;101390.59;;;50.21;18.92
19553;BME280;9420;50.876;7.012;2023-04-29T12:56:41;101390.94;;;50.09;18.80
19553;BME280;9420;50.876;7.012;2023-04-29T12:59:09;101391.19;;;50.85;18.20
19553;BME280;9420;50.876;7.012;2023-04-29T13:01:37;101393.19;;;47.57;19.31
19553;BME280;9420;50.876;7.012;2023-04-29T13:04:05;101394.69;;;50.38;18.83
19553;BME280;9420;50.876;7.012;2023-04-29T13:06:34;101393.13;;;51.79;17.42
19553;BME280;9420;50.876;7.012;2023-04-29T13:09:05;101395.56;;;49.90;17.96
19553;BME280;9420;50.876;7.012;2023-04-29T13:11:33;101402.31;;;51.42;17.64
19553;BME280;9420;50.876;7.012;2023-04-29T13:14:01;101393.22;;;52.11;17.95